createdAt,value
2022-09-25T00:00:49.010Z,18.90
2022-09-25T00:03:18.873Z,18.90
2022-09-25T00:05:47.141Z,18.90
2022-09-25T00:08:15.539Z,18.90
2022-09-25T00:10:44.094Z,18.90
2022-09-25T00:13:12.218Z,18.90
2022-09-25T00:15:40.249Z,18.90
2022-09-25T00:18:08.386Z,18.90
2022-09-25T00:20:37.826Z,18.90
2022-09-25T00:23:05.941Z,18.80
2022-09-25T00:25:33.994Z,18.80
2022-09-25T00:28:02.360Z,18.80
2022-09-25T00:30:30.470Z,18.80
2022-09-25T00:32:58.565Z,18.80
2022-09-25T00:35:26.672Z,18.90
2022-09-25T00:37:56.090Z,18.80
2022-09-25T00:40:24.708Z,18.80
2022-09-25T00:42:52.847Z,18.80
2022-09-25T00:45:21.706Z,18.80
2022-09-25T00:47:54.123Z,18.80
2022-09-25T00:50:32.618Z,18.80
2022-09-25T00:53:04.766Z,18.80
2022-09-25T00:55:33.708Z,18.80
2022-09-25T00:58:01.737Z,18.80
2022-09-25T01:00:29.759Z,18.80
2022-09-25T01:02:57.849Z,18.80
2022-09-25T01:05:27.832Z,18.80
2022-09-25T01:07:57.171Z,18.80
2022-09-25T01:10:26.569Z,18.80
2022-09-25T01:12:54.776Z,18.80
2022-09-25T01:15:24.985Z,18.80
2022-09-25T01:17:59.445Z,18.80
2022-09-25T01:20:39.551Z,18.80
2022-09-25T01:23:12.989Z,18.80
2022-09-25T01:25:52.168Z,18.80
2022-09-25T01:28:32.777Z,18.80
2022-09-25T01:31:04.221Z,18.80
2022-09-25T01:33:35.174Z,18.80
2022-09-25T01:36:04.380Z,18.80
2022-09-25T01:38:34.431Z,18.80
2022-09-25T01:41:06.117Z,18.80
2022-09-25T01:43:36.313Z,18.80
2022-09-25T01:46:07.150Z,18.80
2022-09-25T01:48:35.259Z,18.80
2022-09-25T01:51:04.384Z,18.80
2022-09-25T01:53:34.770Z,18.80
2022-09-25T01:56:05.596Z,18.70
2022-09-25T01:58:35.288Z,18.70
2022-09-25T02:01:06.500Z,18.70
2022-09-25T02:03:37.755Z,18.70
2022-09-25T02:06:07.418Z,18.70
2022-09-25T02:08:37.158Z,18.70
2022-09-25T02:11:06.599Z,18.70
2022-09-25T02:13:38.289Z,18.70
2022-09-25T02:16:10.024Z,18.70
2022-09-25T02:19:06.883Z,18.70
2022-09-25T02:21:45.633Z,18.70
2022-09-25T02:24:18.490Z,18.70
2022-09-25T02:26:46.579Z,18.70
2022-09-25T02:29:15.444Z,18.70
2022-09-25T02:31:47.841Z,18.70
2022-09-25T02:34:16.181Z,18.70
2022-09-25T02:36:45.026Z,18.70
2022-09-25T02:39:13.962Z,18.70
2022-09-25T02:41:50.314Z,18.60
2022-09-25T02:44:20.867Z,18.70
2022-09-25T02:46:55.834Z,18.70
2022-09-25T02:49:25.696Z,18.60
2022-09-25T02:51:57.713Z,18.70
2022-09-25T02:54:26.779Z,18.70
2022-09-25T02:56:59.973Z,18.70
2022-09-25T02:59:33.859Z,18.70
2022-09-25T03:02:03.857Z,18.60
2022-09-25T03:04:32.222Z,18.60
2022-09-25T03:07:00.265Z,18.60
2022-09-25T03:09:28.315Z,18.60
2022-09-25T03:11:56.959Z,18.60
2022-09-25T03:14:25.854Z,18.60
2022-09-25T03:16:56.282Z,18.60
2022-09-25T03:19:25.883Z,18.60
2022-09-25T03:21:54.168Z,18.60
2022-09-25T03:24:22.226Z,18.60
2022-09-25T03:26:50.363Z,18.60
2022-09-25T03:29:18.588Z,18.60
2022-09-25T03:31:46.601Z,18.60
2022-09-25T03:34:15.439Z,18.60
2022-09-25T03:36:47.327Z,18.60
2022-09-25T03:39:17.730Z,18.60
2022-09-25T03:41:47.762Z,18.60
2022-09-25T03:44:15.801Z,18.60
2022-09-25T03:46:43.863Z,18.60
2022-09-25T03:49:12.764Z,18.60
2022-09-25T03:51:42.082Z,18.60
2022-09-25T03:54:11.565Z,18.60
2022-09-25T03:56:39.962Z,18.60
2022-09-25T03:59:08.017Z,18.60
2022-09-25T04:01:37.021Z,18.60
2022-09-25T04:04:05.195Z,18.60
2022-09-25T04:06:33.230Z,18.60
2022-09-25T04:09:01.280Z,18.60
2022-09-25T04:11:31.915Z,18.60
2022-09-25T04:13:59.982Z,18.50
2022-09-25T04:16:29.450Z,18.50
2022-09-25T04:18:57.565Z,18.50
2022-09-25T04:21:25.584Z,18.50
2022-09-25T04:24:10.951Z,18.50
2022-09-25T04:26:40.406Z,18.50
2022-09-25T04:29:09.103Z,18.50
2022-09-25T04:31:37.201Z,18.50
2022-09-25T04:34:04.442Z,18.50
2022-09-25T04:36:32.526Z,18.50
2022-09-25T04:39:00.552Z,18.50
2022-09-25T04:41:28.571Z,18.50
2022-09-25T04:43:57.972Z,18.50
2022-09-25T04:46:26.047Z,18.50
2022-09-25T04:48:54.133Z,18.50
2022-09-25T04:51:22.172Z,18.50
2022-09-25T04:53:50.215Z,18.50
2022-09-25T04:56:18.276Z,18.50
2022-09-25T04:58:47.416Z,18.50
2022-09-25T05:01:17.921Z,18.50
2022-09-25T05:03:48.957Z,18.50
2022-09-25T05:06:17.124Z,18.50
2022-09-25T05:08:45.149Z,18.50
2022-09-25T05:11:13.580Z,18.50
2022-09-25T05:13:43.887Z,18.50
2022-09-25T05:16:11.961Z,18.50
2022-09-25T05:18:41.627Z,18.50
2022-09-25T05:21:09.665Z,18.50
2022-09-25T05:23:37.709Z,18.50
2022-09-25T05:26:05.903Z,18.50
2022-09-25T05:28:34.053Z,18.50
2022-09-25T05:31:03.598Z,18.50
2022-09-25T05:33:32.095Z,18.40
2022-09-25T05:36:03.419Z,18.50
2022-09-25T05:38:33.540Z,18.40
2022-09-25T05:41:04.332Z,18.40
2022-09-25T05:43:32.480Z,18.40
2022-09-25T05:46:00.869Z,18.50
2022-09-25T05:48:28.918Z,18.50
2022-09-25T05:50:57.685Z,18.40
2022-09-25T05:53:27.883Z,18.40
2022-09-25T05:55:58.148Z,18.40
2022-09-25T05:58:26.264Z,18.40
2022-09-25T06:00:54.934Z,18.40
2022-09-25T06:03:24.222Z,18.40
2022-09-25T06:05:52.328Z,18.40
2022-09-25T06:08:20.344Z,18.40
2022-09-25T06:10:53.776Z,18.40
2022-09-25T06:13:21.988Z,18.40
2022-09-25T06:15:52.425Z,18.40
2022-09-25T06:18:21.158Z,18.40
2022-09-25T06:20:49.392Z,18.40
2022-09-25T06:23:17.483Z,18.40
2022-09-25T06:25:45.567Z,18.40
2022-09-25T06:28:14.991Z,18.40
2022-09-25T06:30:43.036Z,18.40
2022-09-25T06:33:12.932Z,18.40
2022-09-25T06:35:42.447Z,18.40
2022-09-25T06:38:10.560Z,18.40
2022-09-25T06:40:41.503Z,18.40
2022-09-25T06:43:11.488Z,18.40
2022-09-25T06:45:41.369Z,18.40
2022-09-25T06:48:10.293Z,18.40
2022-09-25T06:50:41.015Z,18.40
2022-09-25T06:53:09.297Z,18.40
2022-09-25T06:55:37.579Z,18.40
2022-09-25T06:58:06.298Z,18.40
2022-09-25T07:00:34.516Z,18.40
2022-09-25T07:03:21.505Z,18.40
2022-09-25T07:05:49.682Z,18.40
2022-09-25T07:08:21.013Z,18.40
2022-09-25T07:10:50.239Z,18.40
2022-09-25T07:13:18.596Z,18.40
2022-09-25T07:15:52.774Z,18.40
2022-09-25T07:18:22.366Z,18.40
2022-09-25T07:20:50.802Z,18.40
2022-09-25T07:23:19.629Z,18.40
2022-09-25T07:25:47.984Z,18.40
2022-09-25T07:28:16.457Z,18.40
2022-09-25T07:30:44.576Z,18.40
2022-09-25T07:33:13.088Z,18.40
2022-09-25T07:35:42.579Z,18.40
2022-09-25T07:38:10.662Z,18.40
2022-09-25T07:40:38.912Z,18.40
2022-09-25T07:43:06.993Z,18.40
2022-09-25T07:45:35.849Z,18.40
2022-09-25T07:48:04.539Z,18.40
2022-09-25T07:50:32.979Z,18.40
2022-09-25T07:53:02.427Z,18.40
2022-09-25T07:55:30.519Z,18.40
2022-09-25T07:57:59.143Z,18.40
2022-09-25T08:00:27.213Z,18.40
2022-09-25T08:02:59.027Z,18.30
2022-09-25T08:05:27.480Z,18.40
2022-09-25T08:07:55.638Z,18.40
2022-09-25T08:10:25.089Z,18.30
2022-09-25T08:12:53.830Z,18.40
2022-09-25T08:15:22.103Z,18.40
2022-09-25T08:17:52.412Z,18.40
2022-09-25T08:20:20.584Z,18.40
2022-09-25T08:22:48.739Z,18.40
2022-09-25T08:25:17.137Z,18.40
2022-09-25T08:27:46.568Z,18.40
2022-09-25T08:30:17.887Z,18.40
2022-09-25T08:32:45.933Z,18.40
2022-09-25T08:35:14.420Z,18.40
2022-09-25T08:37:43.140Z,18.40
2022-09-25T08:40:17.820Z,18.40
2022-09-25T08:42:48.328Z,18.40
2022-09-25T08:45:43.849Z,18.40
2022-09-25T08:48:35.059Z,18.40
2022-09-25T08:51:05.423Z,18.40
2022-09-25T08:53:34.443Z,18.40
2022-09-25T08:56:17.614Z,18.40
2022-09-25T08:58:51.591Z,18.50
2022-09-25T09:01:22.202Z,18.50
2022-09-25T09:03:54.479Z,18.50
2022-09-25T09:06:22.803Z,18.50
2022-09-25T09:08:53.865Z,18.50
2022-09-25T09:11:24.719Z,18.50
2022-09-25T09:13:56.198Z,18.50
2022-09-25T09:16:28.406Z,18.50
2022-09-25T09:18:56.547Z,18.50
2022-09-25T09:21:35.076Z,18.50
2022-09-25T09:24:07.922Z,18.50
2022-09-25T09:26:43.978Z,18.50
2022-09-25T09:29:23.487Z,18.50
2022-09-25T09:31:56.729Z,18.50
2022-09-25T09:34:53.574Z,18.60
2022-09-25T09:37:26.008Z,18.60
2022-09-25T09:40:00.154Z,18.60
2022-09-25T09:42:33.244Z,18.60
2022-09-25T09:45:09.826Z,18.60
2022-09-25T09:47:42.062Z,18.60
2022-09-25T09:50:32.662Z,18.60
2022-09-25T09:53:02.712Z,18.60
2022-09-25T09:55:35.432Z,18.60
2022-09-25T09:58:08.713Z,18.60
2022-09-25T10:00:39.007Z,18.60
2022-09-25T10:03:13.004Z,18.60
2022-09-25T10:05:43.954Z,18.60
2022-09-25T10:08:12.070Z,18.60
2022-09-25T10:10:41.346Z,18.60
2022-09-25T10:13:14.640Z,18.60
2022-09-25T10:15:46.105Z,18.60
2022-09-25T10:18:14.256Z,18.60
2022-09-25T10:20:43.466Z,18.60
2022-09-25T10:23:19.113Z,18.60
2022-09-25T10:25:47.146Z,18.70
2022-09-25T10:28:30.433Z,18.70
2022-09-25T10:31:00.060Z,18.60
2022-09-25T10:33:29.204Z,18.70
2022-09-25T10:35:57.453Z,18.60
2022-09-25T10:38:39.475Z,18.70
2022-09-25T10:41:09.016Z,18.70
2022-09-25T10:43:37.269Z,18.70
2022-09-25T10:46:13.693Z,18.70
2022-09-25T10:48:59.333Z,18.70
2022-09-25T10:51:27.412Z,18.70
2022-09-25T10:54:11.307Z,18.70
2022-09-25T10:56:39.453Z,18.80
2022-09-25T10:59:14.961Z,18.80
2022-09-25T11:01:44.659Z,18.80
2022-09-25T11:04:15.944Z,18.80
2022-09-25T11:06:45.516Z,18.80
2022-09-25T11:09:14.958Z,18.80
2022-09-25T11:11:44.191Z,18.80
2022-09-25T11:14:21.021Z,18.80
2022-09-25T11:16:55.392Z,18.90
2022-09-25T11:19:29.048Z,18.90
2022-09-25T11:22:07.827Z,18.90
2022-09-25T11:24:42.749Z,18.90
2022-09-25T11:27:13.099Z,18.90
2022-09-25T11:29:45.425Z,18.90
2022-09-25T11:32:19.823Z,18.90
2022-09-25T11:35:00.406Z,18.90
2022-09-25T11:37:31.627Z,18.90
2022-09-25T11:40:20.865Z,19.00
2022-09-25T11:42:52.853Z,19.00
2022-09-25T11:45:24.736Z,19.00
2022-09-25T11:47:56.235Z,18.90
2022-09-25T11:50:35.719Z,19.00
2022-09-25T11:53:07.165Z,19.00
2022-09-25T11:55:43.476Z,19.00
2022-09-25T11:58:36.472Z,19.00
2022-09-25T12:01:09.638Z,19.00
2022-09-25T12:03:47.729Z,19.00
2022-09-25T12:06:24.604Z,19.00
2022-09-25T12:09:00.412Z,19.00
2022-09-25T12:11:31.698Z,19.00
2022-09-25T12:14:01.382Z,19.00
2022-09-25T12:16:34.850Z,19.10
2022-09-25T12:19:14.581Z,19.10
2022-09-25T12:21:47.893Z,19.10
2022-09-25T12:24:32.019Z,19.10
2022-09-25T12:27:04.214Z,19.10
2022-09-25T12:29:50.255Z,19.10
2022-09-25T12:32:25.127Z,19.10
2022-09-25T12:35:09.458Z,19.10
2022-09-25T12:37:43.596Z,19.10
2022-09-25T12:40:16.430Z,19.10
2022-09-25T12:42:46.224Z,19.10
2022-09-25T12:45:17.148Z,19.10
2022-09-25T12:47:47.008Z,19.10
2022-09-25T12:50:17.718Z,19.10
2022-09-25T12:52:47.346Z,19.10
2022-09-25T12:55:18.810Z,19.10
2022-09-25T12:57:49.063Z,19.10
2022-09-25T13:00:20.750Z,19.10
2022-09-25T13:02:53.511Z,19.10
2022-09-25T13:05:25.258Z,19.20
2022-09-25T13:07:55.421Z,19.10
2022-09-25T13:10:27.512Z,19.20
2022-09-25T13:12:56.874Z,19.20
2022-09-25T13:15:26.420Z,19.20
2022-09-25T13:17:55.725Z,19.10
2022-09-25T13:20:50.558Z,19.10
2022-09-25T13:23:26.198Z,19.20
2022-09-25T13:25:58.091Z,19.20
2022-09-25T13:28:27.063Z,19.20
2022-09-25T13:31:13.573Z,19.20
2022-09-25T13:33:47.252Z,19.20
2022-09-25T13:36:31.914Z,19.20
2022-09-25T13:39:18.426Z,19.20
2022-09-25T13:41:56.390Z,19.30
2022-09-25T13:44:58.980Z,19.30
2022-09-25T13:48:01.765Z,19.30
2022-09-25T13:50:37.388Z,19.30
2022-09-25T13:53:37.314Z,19.30
2022-09-25T13:56:25.109Z,19.30
2022-09-25T13:59:04.990Z,19.40
2022-09-25T14:01:35.979Z,19.40
2022-09-25T14:04:10.220Z,19.40
2022-09-25T14:06:41.575Z,19.40
2022-09-25T14:09:12.564Z,19.40
2022-09-25T14:11:41.768Z,19.40
2022-09-25T14:14:13.551Z,19.50
2022-09-25T14:16:44.757Z,19.40
2022-09-25T14:19:16.931Z,19.50
2022-09-25T14:21:45.362Z,19.50
2022-09-25T14:24:21.164Z,19.50
2022-09-25T14:26:51.354Z,19.60
2022-09-25T14:29:20.286Z,19.60
2022-09-25T14:31:53.130Z,19.60
2022-09-25T14:34:33.124Z,19.60
2022-09-25T14:37:06.288Z,19.60
2022-09-25T14:39:42.307Z,19.60
2022-09-25T14:42:33.450Z,19.70
2022-09-25T14:45:22.449Z,19.70
2022-09-25T14:47:51.433Z,19.70
2022-09-25T14:50:21.703Z,19.70
2022-09-25T14:52:50.499Z,19.70
2022-09-25T14:55:21.072Z,19.80
2022-09-25T14:57:49.505Z,19.80
2022-09-25T15:00:20.339Z,19.80
2022-09-25T15:02:50.399Z,19.80
2022-09-25T15:05:20.137Z,19.80
2022-09-25T15:07:48.399Z,19.80
2022-09-25T15:10:29.616Z,19.80
2022-09-25T15:13:07.389Z,19.80
2022-09-25T15:15:35.758Z,19.80
2022-09-25T15:18:04.756Z,19.80
2022-09-25T15:20:33.564Z,19.80
2022-09-25T15:23:04.709Z,19.80
2022-09-25T15:25:35.260Z,19.80
2022-09-25T15:28:05.746Z,19.80
2022-09-25T15:30:34.491Z,19.80
2022-09-25T15:33:02.578Z,19.80
2022-09-25T15:35:32.302Z,19.80
2022-09-25T15:38:05.296Z,19.80
2022-09-25T15:40:34.862Z,19.80
2022-09-25T15:43:03.012Z,19.80
2022-09-25T15:45:42.777Z,19.80
2022-09-25T15:48:23.066Z,19.70
2022-09-25T15:50:51.168Z,19.70
2022-09-25T15:53:22.011Z,19.70
2022-09-25T15:55:51.762Z,19.80
2022-09-25T15:58:19.930Z,19.70
2022-09-25T16:01:17.889Z,19.70
2022-09-25T16:04:08.429Z,19.70
2022-09-25T16:06:45.063Z,19.70
2022-09-25T16:09:28.136Z,19.80
2022-09-25T16:12:18.130Z,19.70
2022-09-25T16:14:46.230Z,19.70
2022-09-25T16:17:17.999Z,19.70
2022-09-25T16:19:46.245Z,19.70
2022-09-25T16:22:19.434Z,19.70
2022-09-25T16:24:50.828Z,19.70
2022-09-25T16:27:24.983Z,19.70
2022-09-25T16:29:53.037Z,19.70
2022-09-25T16:32:21.205Z,19.60
2022-09-25T16:34:56.024Z,19.60
2022-09-25T16:37:24.712Z,19.60
2022-09-25T16:40:08.974Z,19.60
2022-09-25T16:42:40.471Z,19.60
2022-09-25T16:45:16.546Z,19.70
2022-09-25T16:47:49.208Z,19.60
2022-09-25T16:50:17.717Z,19.60
2022-09-25T16:52:45.775Z,19.60
2022-09-25T16:55:23.118Z,19.60
2022-09-25T16:57:53.133Z,19.60
2022-09-25T17:00:25.978Z,19.60
2022-09-25T17:02:54.203Z,19.60
2022-09-25T17:05:23.437Z,19.60
2022-09-25T17:07:54.852Z,19.60
2022-09-25T17:10:28.603Z,19.50
2022-09-25T17:13:00.772Z,19.50
2022-09-25T17:15:32.842Z,19.60
2022-09-25T17:18:02.117Z,19.50
2022-09-25T17:20:30.918Z,19.50
2022-09-25T17:23:00.122Z,19.50
2022-09-25T17:25:38.169Z,19.60
2022-09-25T17:28:08.813Z,19.50
2022-09-25T17:30:37.204Z,19.50
2022-09-25T17:33:06.201Z,19.50
2022-09-25T17:35:39.088Z,19.50
2022-09-25T17:38:08.304Z,19.50
2022-09-25T17:40:36.472Z,19.50
2022-09-25T17:43:04.679Z,19.50
2022-09-25T17:45:39.182Z,19.50
2022-09-25T17:48:07.264Z,19.40
2022-09-25T17:50:36.226Z,19.50
2022-09-25T17:53:05.130Z,19.50
2022-09-25T17:55:34.132Z,19.40
2022-09-25T17:58:02.328Z,19.40
2022-09-25T18:00:30.401Z,19.40
2022-09-25T18:02:59.969Z,19.40
2022-09-25T18:05:29.597Z,19.40
2022-09-25T18:07:59.020Z,19.40
2022-09-25T18:10:29.272Z,19.50
2022-09-25T18:12:59.134Z,19.50
2022-09-25T18:15:27.462Z,19.40
2022-09-25T18:17:55.557Z,19.40
2022-09-25T18:20:43.377Z,19.40
2022-09-25T18:23:11.530Z,19.40
2022-09-25T18:25:40.800Z,19.40
2022-09-25T18:28:08.893Z,19.40
2022-09-25T18:30:38.180Z,19.40
2022-09-25T18:33:06.427Z,19.40
2022-09-25T18:35:35.851Z,19.40
2022-09-25T18:38:03.948Z,19.40
2022-09-25T18:40:32.054Z,19.40
2022-09-25T18:43:01.434Z,19.40
2022-09-25T18:45:29.608Z,19.40
2022-09-25T18:48:00.069Z,19.40
2022-09-25T18:50:28.774Z,19.40
2022-09-25T18:52:58.710Z,19.40
2022-09-25T18:55:26.928Z,19.40
2022-09-25T18:57:55.005Z,19.40
2022-09-25T19:00:23.115Z,19.40
2022-09-25T19:02:51.267Z,19.40
2022-09-25T19:05:20.269Z,19.40
2022-09-25T19:07:48.395Z,19.40
2022-09-25T19:10:18.121Z,19.40
2022-09-25T19:12:46.337Z,19.40
2022-09-25T19:15:14.531Z,19.40
2022-09-25T19:17:42.566Z,19.40
2022-09-25T19:20:11.389Z,19.40
2022-09-25T19:22:41.060Z,19.40
2022-09-25T19:25:11.184Z,19.40
2022-09-25T19:27:40.668Z,19.40
2022-09-25T19:30:09.539Z,19.40
2022-09-25T19:32:38.802Z,19.40
2022-09-25T19:35:07.332Z,19.40
2022-09-25T19:37:35.381Z,19.40
2022-09-25T19:40:21.376Z,19.40
2022-09-25T19:42:50.963Z,19.40
2022-09-25T19:45:21.070Z,19.40
2022-09-25T19:47:49.320Z,19.40
2022-09-25T19:50:18.871Z,19.40
2022-09-25T19:52:50.942Z,19.40
2022-09-25T19:55:19.778Z,19.40
2022-09-25T19:57:47.995Z,19.40
2022-09-25T20:00:18.231Z,19.40
2022-09-25T20:02:47.501Z,19.40
2022-09-25T20:05:17.161Z,19.40
2022-09-25T20:07:45.193Z,19.40
2022-09-25T20:10:13.770Z,19.40
2022-09-25T20:12:41.919Z,19.30
2022-09-25T20:15:10.542Z,19.30
2022-09-25T20:17:39.951Z,19.30
2022-09-25T20:20:08.485Z,19.30
2022-09-25T20:22:36.672Z,19.30
2022-09-25T20:25:04.930Z,19.40
2022-09-25T20:27:32.996Z,19.40
2022-09-25T20:30:01.045Z,19.40
2022-09-25T20:32:29.168Z,19.40
2022-09-25T20:34:58.554Z,19.40
2022-09-25T20:37:26.813Z,19.40
2022-09-25T20:39:54.979Z,19.40
2022-09-25T20:42:23.024Z,19.40
2022-09-25T20:44:51.461Z,19.40
2022-09-25T20:47:19.588Z,19.50
2022-09-25T20:49:47.636Z,19.50
2022-09-25T20:52:17.062Z,19.50
2022-09-25T20:54:45.119Z,19.50
2022-09-25T20:57:13.149Z,19.50
2022-09-25T20:59:41.210Z,19.50
2022-09-25T21:02:10.180Z,19.50
2022-09-25T21:04:38.471Z,19.60
2022-09-25T21:07:06.513Z,19.60
2022-09-25T21:09:35.906Z,19.60
2022-09-25T21:12:05.788Z,19.60
2022-09-25T21:14:35.205Z,19.60
2022-09-25T21:17:03.385Z,19.60
2022-09-25T21:19:31.851Z,19.60
2022-09-25T21:21:59.905Z,19.60
2022-09-25T21:24:27.962Z,19.60
2022-09-25T21:26:57.360Z,19.70
2022-09-25T21:29:25.403Z,19.70
2022-09-25T21:31:54.737Z,19.70
2022-09-25T21:34:22.765Z,19.70
2022-09-25T21:36:50.798Z,19.70
2022-09-25T21:39:20.981Z,19.70
2022-09-25T21:41:49.574Z,19.60
2022-09-25T21:44:20.235Z,19.60
2022-09-25T21:46:48.285Z,19.70
2022-09-25T21:49:17.231Z,19.60
2022-09-25T21:51:45.841Z,19.60
2022-09-25T21:54:14.098Z,19.60
2022-09-25T21:56:43.193Z,19.60
2022-09-25T21:59:11.339Z,19.60
2022-09-25T22:01:40.863Z,19.60
2022-09-25T22:04:09.812Z,19.60
2022-09-25T22:06:38.930Z,19.60
2022-09-25T22:09:07.834Z,19.60
2022-09-25T22:11:37.229Z,19.60
2022-09-25T22:14:05.874Z,19.60
2022-09-25T22:16:35.599Z,19.60
2022-09-25T22:19:08.000Z,19.60
2022-09-25T22:21:36.208Z,19.60
2022-09-25T22:24:04.300Z,19.60
2022-09-25T22:26:32.661Z,19.60
2022-09-25T22:29:00.695Z,19.60
2022-09-25T22:31:29.793Z,19.60
2022-09-25T22:34:00.481Z,19.60
2022-09-25T22:36:30.227Z,19.60
2022-09-25T22:38:58.314Z,19.50
2022-09-25T22:41:26.451Z,19.50
2022-09-25T22:43:56.349Z,19.60
2022-09-25T22:46:26.867Z,19.60
2022-09-25T22:48:54.965Z,19.50
2022-09-25T22:51:23.840Z,19.50
2022-09-25T22:53:53.685Z,19.50
2022-09-25T22:56:23.884Z,19.50
2022-09-25T22:58:52.709Z,19.50
2022-09-25T23:01:22.432Z,19.50
2022-09-25T23:03:53.297Z,19.50
2022-09-25T23:06:21.370Z,19.50
2022-09-25T23:08:53.760Z,19.50
2022-09-25T23:11:22.005Z,19.40
2022-09-25T23:13:50.677Z,19.50
2022-09-25T23:16:19.173Z,19.50
2022-09-25T23:18:47.258Z,19.50
2022-09-25T23:21:15.342Z,19.40
2022-09-25T23:23:43.389Z,19.40
2022-09-25T23:26:12.868Z,19.40
2022-09-25T23:28:41.483Z,19.40
2022-09-25T23:31:10.290Z,19.40
2022-09-25T23:33:38.498Z,19.40
2022-09-25T23:36:07.617Z,19.40
2022-09-25T23:38:35.909Z,19.40
2022-09-25T23:41:04.198Z,19.40
2022-09-25T23:43:33.652Z,19.40
2022-09-25T23:46:01.833Z,19.40
2022-09-25T23:48:29.963Z,19.40
2022-09-25T23:50:58.004Z,19.40
2022-09-25T23:53:26.173Z,19.40
2022-09-25T23:55:54.304Z,19.40
2022-09-25T23:58:22.358Z,19.40
